createdAt,value
2023-03-07T00:01:27.161Z,12.23
2023-03-07T00:03:54.278Z,12.55
2023-03-07T00:06:21.504Z,13.68
2023-03-07T00:08:53.085Z,12.63
2023-03-07T00:11:19.911Z,12.20
2023-03-07T00:13:46.716Z,15.95
2023-03-07T00:16:16.417Z,13.00
2023-03-07T00:18:43.995Z,11.77
2023-03-07T00:21:13.441Z,12.38
2023-03-07T00:23:42.643Z,15.50
2023-03-07T00:26:20.934Z,12.90
2023-03-07T00:28:50.043Z,13.23
2023-03-07T00:31:17.676Z,12.93
2023-03-07T00:33:44.730Z,11.38
2023-03-07T00:36:16.657Z,14.40
2023-03-07T00:38:45.007Z,14.32
2023-03-07T00:41:14.430Z,12.55
2023-03-07T00:43:41.833Z,17.05
2023-03-07T00:46:09.009Z,15.07
2023-03-07T00:48:37.796Z,20.25
2023-03-07T00:51:06.205Z,18.88
2023-03-07T00:53:33.279Z,20.65
2023-03-07T00:56:01.485Z,20.55
2023-03-07T00:58:32.932Z,18.70
2023-03-07T01:01:00.407Z,24.55
2023-03-07T01:03:27.774Z,21.75
2023-03-07T01:05:55.164Z,23.60
2023-03-07T01:08:22.971Z,24.00
2023-03-07T01:10:49.916Z,21.55
2023-03-07T01:13:18.871Z,21.13
2023-03-07T01:15:46.318Z,22.50
2023-03-07T01:18:13.219Z,23.30
2023-03-07T01:20:41.018Z,23.83
2023-03-07T01:23:08.082Z,23.27
2023-03-07T01:25:40.096Z,27.48
2023-03-07T01:28:08.108Z,25.15
2023-03-07T01:30:34.893Z,25.17
2023-03-07T01:33:03.957Z,25.50
2023-03-07T01:35:36.049Z,25.02
2023-03-07T01:38:02.872Z,29.70
2023-03-07T01:40:30.590Z,24.83
2023-03-07T01:43:22.605Z,25.63
2023-03-07T01:45:51.575Z,24.55
2023-03-07T01:48:19.366Z,28.52
2023-03-07T01:50:48.476Z,27.95
2023-03-07T01:53:15.913Z,27.63
2023-03-07T01:55:43.152Z,26.90
2023-03-07T01:58:15.018Z,28.27
2023-03-07T02:00:44.235Z,25.65
2023-03-07T02:03:10.898Z,24.27
2023-03-07T02:06:04.602Z,28.35
2023-03-07T02:08:33.028Z,23.35
2023-03-07T02:10:59.763Z,24.08
2023-03-07T02:13:29.022Z,24.17
2023-03-07T02:15:56.905Z,24.35
2023-03-07T02:18:28.191Z,22.48
2023-03-07T02:21:03.916Z,37.92
2023-03-07T02:23:40.648Z,27.13
2023-03-07T02:26:12.686Z,28.52
2023-03-07T02:28:42.496Z,27.58
2023-03-07T02:31:10.604Z,27.88
2023-03-07T02:33:38.766Z,29.95
2023-03-07T02:36:11.468Z,25.58
2023-03-07T02:38:45.365Z,40.85
2023-03-07T02:41:12.916Z,33.72
2023-03-07T02:43:39.879Z,27.00
2023-03-07T02:46:07.539Z,30.67
2023-03-07T02:48:34.291Z,32.70
2023-03-07T02:51:01.160Z,29.90
2023-03-07T02:53:28.473Z,31.77
2023-03-07T02:55:55.235Z,32.85
2023-03-07T02:58:22.217Z,29.70
2023-03-07T03:00:49.200Z,31.35
2023-03-07T03:03:15.965Z,28.48
2023-03-07T03:05:42.621Z,31.95
2023-03-07T03:08:09.783Z,33.55
2023-03-07T03:10:36.642Z,29.83
2023-03-07T03:13:03.402Z,35.40
2023-03-07T03:15:30.143Z,32.40
2023-03-07T03:17:57.066Z,32.70
2023-03-07T03:20:25.496Z,33.13
2023-03-07T03:22:53.085Z,34.22
2023-03-07T03:25:23.266Z,36.53
2023-03-07T03:27:50.995Z,36.78
2023-03-07T03:30:17.862Z,36.95
2023-03-07T03:32:45.036Z,34.25
2023-03-07T03:35:14.914Z,39.58
2023-03-07T03:37:42.274Z,36.63
2023-03-07T03:40:14.640Z,36.40
2023-03-07T03:42:43.681Z,37.60
2023-03-07T03:45:11.796Z,36.78
2023-03-07T03:47:38.575Z,39.00
2023-03-07T03:50:06.335Z,36.13
2023-03-07T03:52:35.773Z,40.63
2023-03-07T03:55:02.701Z,38.67
2023-03-07T03:57:29.437Z,39.15
2023-03-07T03:59:56.114Z,37.72
2023-03-07T04:02:23.542Z,37.70
2023-03-07T04:04:50.966Z,36.58
2023-03-07T04:07:17.633Z,37.22
2023-03-07T04:09:45.598Z,39.90
2023-03-07T04:12:12.397Z,41.95
2023-03-07T04:14:40.196Z,37.55
2023-03-07T04:17:07.349Z,35.95
2023-03-07T04:19:34.115Z,35.35
2023-03-07T04:22:01.393Z,35.92
2023-03-07T04:24:28.093Z,40.20
2023-03-07T04:26:54.822Z,34.10
2023-03-07T04:29:21.581Z,36.95
2023-03-07T04:31:55.017Z,36.88
2023-03-07T04:34:22.054Z,36.70
2023-03-07T04:36:48.962Z,33.65
2023-03-07T04:39:15.822Z,35.63
2023-03-07T04:41:43.002Z,36.92
2023-03-07T04:44:17.250Z,36.78
2023-03-07T04:46:44.139Z,34.78
2023-03-07T04:49:11.302Z,36.42
2023-03-07T04:51:39.399Z,34.25
2023-03-07T04:54:06.506Z,32.67
2023-03-07T04:56:33.605Z,28.98
2023-03-07T04:59:01.287Z,38.42
2023-03-07T05:01:28.166Z,39.65
2023-03-07T05:03:55.084Z,35.78
2023-03-07T05:06:22.185Z,30.77
2023-03-07T05:08:52.646Z,40.92
2023-03-07T05:11:19.586Z,34.22
2023-03-07T05:13:46.786Z,34.50
2023-03-07T05:16:17.874Z,35.70
2023-03-07T05:18:44.879Z,31.80
2023-03-07T05:21:12.169Z,32.28
2023-03-07T05:23:39.733Z,33.85
2023-03-07T05:26:07.941Z,31.42
2023-03-07T05:28:34.689Z,35.05
2023-03-07T05:31:02.210Z,29.23
2023-03-07T05:33:29.148Z,31.95
2023-03-07T05:36:00.051Z,33.80
2023-03-07T05:38:27.087Z,29.35
2023-03-07T05:40:53.832Z,27.65
2023-03-07T05:43:20.493Z,29.77
2023-03-07T05:45:47.175Z,34.42
2023-03-07T05:48:14.495Z,31.08
2023-03-07T05:50:42.743Z,32.60
2023-03-07T05:53:09.925Z,30.45
2023-03-07T05:55:36.652Z,27.70
2023-03-07T05:58:03.715Z,27.38
2023-03-07T06:00:30.550Z,32.03
2023-03-07T06:03:04.005Z,26.70
2023-03-07T06:05:31.772Z,29.08
2023-03-07T06:07:58.596Z,27.98
2023-03-07T06:10:25.940Z,28.77
2023-03-07T06:12:56.072Z,26.40
2023-03-07T06:15:24.564Z,30.65
2023-03-07T06:17:56.846Z,27.80
2023-03-07T06:20:24.385Z,27.67
2023-03-07T06:22:53.743Z,29.30
2023-03-07T06:25:21.903Z,27.30
2023-03-07T06:27:49.341Z,29.00
2023-03-07T06:30:16.147Z,29.17
2023-03-07T06:32:43.021Z,27.45
2023-03-07T06:35:10.328Z,29.65
2023-03-07T06:37:37.261Z,29.15
2023-03-07T06:40:06.470Z,29.58
2023-03-07T06:42:35.630Z,27.30
2023-03-07T06:45:02.939Z,29.02
2023-03-07T06:47:29.646Z,26.50
2023-03-07T06:49:57.012Z,27.67
2023-03-07T06:52:24.136Z,28.75
2023-03-07T06:54:51.120Z,25.52
2023-03-07T06:57:17.819Z,28.15
2023-03-07T06:59:45.009Z,29.58
2023-03-07T07:02:13.812Z,30.80
2023-03-07T07:04:40.765Z,28.00
2023-03-07T07:07:07.556Z,32.38
2023-03-07T07:09:37.203Z,27.63
2023-03-07T07:12:06.050Z,30.40
2023-03-07T07:14:34.795Z,26.90
2023-03-07T07:17:02.837Z,24.52
2023-03-07T07:19:29.584Z,24.75
2023-03-07T07:22:00.961Z,26.92
2023-03-07T07:24:27.704Z,25.93
2023-03-07T07:26:55.947Z,28.70
2023-03-07T07:29:23.757Z,24.83
2023-03-07T07:31:51.587Z,27.73
2023-03-07T07:34:19.634Z,26.98
2023-03-07T07:36:47.137Z,27.25
2023-03-07T07:39:15.395Z,26.35
2023-03-07T07:41:44.684Z,27.83
2023-03-07T07:44:12.049Z,24.73
2023-03-07T07:46:51.136Z,22.52
2023-03-07T07:49:18.758Z,26.20
2023-03-07T07:51:46.110Z,27.23
2023-03-07T07:54:12.885Z,23.02
2023-03-07T07:56:40.562Z,25.95
2023-03-07T07:59:07.363Z,25.15
2023-03-07T08:01:34.271Z,24.40
2023-03-07T08:04:01.028Z,24.45
2023-03-07T08:06:28.237Z,21.67
2023-03-07T08:08:55.590Z,25.95
2023-03-07T08:11:23.297Z,23.98
2023-03-07T08:13:50.216Z,20.55
2023-03-07T08:16:18.996Z,22.23
2023-03-07T08:18:51.300Z,23.67
2023-03-07T08:21:18.339Z,21.80
2023-03-07T08:23:45.298Z,27.17
2023-03-07T08:26:13.493Z,23.75
2023-03-07T08:28:41.687Z,22.17
2023-03-07T08:31:15.912Z,26.17
2023-03-07T08:33:43.173Z,38.63
2023-03-07T08:36:10.241Z,21.10
2023-03-07T08:38:37.035Z,23.40
2023-03-07T08:41:05.811Z,28.58
2023-03-07T08:43:34.053Z,22.52
2023-03-07T08:46:00.913Z,24.08
2023-03-07T08:48:27.745Z,33.72
2023-03-07T08:50:55.367Z,20.00
2023-03-07T08:53:22.901Z,20.27
2023-03-07T08:55:50.072Z,22.30
2023-03-07T08:58:16.797Z,20.70
2023-03-07T09:00:43.574Z,21.33
2023-03-07T09:03:10.368Z,21.15
2023-03-07T09:05:38.963Z,21.08
2023-03-07T09:08:09.289Z,25.13
2023-03-07T09:10:37.049Z,22.10
2023-03-07T09:13:03.810Z,20.55
2023-03-07T09:15:30.743Z,23.38
2023-03-07T09:17:57.478Z,22.02
2023-03-07T09:20:24.948Z,18.58
2023-03-07T09:22:53.718Z,19.58
2023-03-07T09:25:20.467Z,21.88
2023-03-07T09:27:47.374Z,19.25
2023-03-07T09:30:14.928Z,20.80
2023-03-07T09:32:42.198Z,19.17
2023-03-07T09:35:10.429Z,20.65
2023-03-07T09:37:38.139Z,19.42
2023-03-07T09:40:09.554Z,18.80
2023-03-07T09:42:45.903Z,18.33
2023-03-07T09:45:21.249Z,16.92
2023-03-07T09:48:07.999Z,18.77
2023-03-07T09:50:45.551Z,20.15
2023-03-07T09:53:45.070Z,14.65
2023-03-07T09:56:25.317Z,13.80
2023-03-07T09:59:21.920Z,14.00
2023-03-07T10:02:06.129Z,11.98
2023-03-07T10:04:43.756Z,13.27
2023-03-07T10:07:12.960Z,13.20
2023-03-07T10:09:39.759Z,12.20
2023-03-07T10:12:25.662Z,12.52
2023-03-07T10:18:42.729Z,11.45
2023-03-07T10:21:18.168Z,10.18
2023-03-07T10:24:06.769Z,8.00
2023-03-07T10:26:35.913Z,9.52
2023-03-07T10:29:14.183Z,11.38
2023-03-07T10:31:43.173Z,11.65
2023-03-07T10:34:26.408Z,11.60
2023-03-07T10:37:08.402Z,14.50
2023-03-07T10:39:53.714Z,10.73
2023-03-07T10:42:22.976Z,8.57
2023-03-07T10:44:51.223Z,9.77
2023-03-07T10:47:21.167Z,7.43
2023-03-07T10:49:49.328Z,9.10
2023-03-07T10:52:33.071Z,7.18
2023-03-07T10:55:44.648Z,12.60
2023-03-07T10:58:16.103Z,7.40
2023-03-07T11:00:44.604Z,6.43
2023-03-07T11:03:52.841Z,6.25
2023-03-07T11:06:28.544Z,6.05
2023-03-07T11:08:56.293Z,4.68
2023-03-07T11:11:32.205Z,8.20
2023-03-07T11:14:10.630Z,5.80
2023-03-07T11:16:43.558Z,5.32
2023-03-07T11:19:33.437Z,5.10
2023-03-07T11:22:03.729Z,3.47
2023-03-07T11:24:38.385Z,4.18
2023-03-07T11:27:05.757Z,3.20
2023-03-07T11:29:33.841Z,3.50
2023-03-07T11:32:06.546Z,4.50
2023-03-07T11:34:53.999Z,3.80
2023-03-07T11:37:43.670Z,4.43
2023-03-07T11:40:34.085Z,6.82
2023-03-07T11:43:21.583Z,7.43
2023-03-07T11:45:51.287Z,3.90
2023-03-07T11:48:33.915Z,4.30
2023-03-07T11:51:03.081Z,4.78
2023-03-07T11:53:30.310Z,9.02
2023-03-07T11:56:31.042Z,17.58
2023-03-07T11:59:09.932Z,17.77
2023-03-07T12:01:47.697Z,10.32
2023-03-07T12:04:36.520Z,3.58
2023-03-07T12:07:44.987Z,12.18
2023-03-07T12:10:38.961Z,6.00
2023-03-07T12:13:24.375Z,5.15
2023-03-07T12:16:03.127Z,5.20
2023-03-07T12:18:58.181Z,3.75
2023-03-07T12:21:34.598Z,4.55
2023-03-07T12:24:11.356Z,3.03
2023-03-07T12:26:50.736Z,4.03
2023-03-07T12:29:35.749Z,5.88
2023-03-07T12:32:35.419Z,6.60
2023-03-07T12:35:08.567Z,3.10
2023-03-07T12:37:41.821Z,2.05
2023-03-07T12:40:42.490Z,2.78
2023-03-07T12:43:34.211Z,3.97
2023-03-07T12:46:23.690Z,2.67
2023-03-07T12:49:02.055Z,3.65
2023-03-07T12:51:37.457Z,2.00
2023-03-07T12:54:10.653Z,2.75
2023-03-07T12:57:19.429Z,8.98
2023-03-07T12:59:46.344Z,6.10
2023-03-07T13:02:24.769Z,2.55
2023-03-07T13:04:51.532Z,5.55
2023-03-07T13:07:20.355Z,2.67
2023-03-07T13:09:48.730Z,2.45
2023-03-07T13:12:25.508Z,2.97
2023-03-07T13:14:53.526Z,4.40
2023-03-07T13:17:33.364Z,2.65
2023-03-07T13:20:11.459Z,3.30
2023-03-07T13:22:38.160Z,2.70
2023-03-07T13:25:20.489Z,3.67
2023-03-07T13:27:55.802Z,3.15
2023-03-07T13:30:32.617Z,2.17
2023-03-07T13:33:00.395Z,3.08
2023-03-07T13:35:39.376Z,3.75
2023-03-07T13:38:15.586Z,3.38
2023-03-07T13:40:46.755Z,17.55
2023-03-07T13:43:19.377Z,1.60
2023-03-07T13:45:46.771Z,4.63
2023-03-07T13:48:19.623Z,5.18
2023-03-07T13:50:46.306Z,3.30
2023-03-07T13:53:20.134Z,4.88
2023-03-07T13:56:16.202Z,5.32
2023-03-07T13:58:52.428Z,4.68
2023-03-07T14:01:25.455Z,1.42
2023-03-07T14:03:58.765Z,8.25
2023-03-07T14:06:36.663Z,1.63
2023-03-07T14:09:05.694Z,4.20
2023-03-07T14:11:44.610Z,2.00
2023-03-07T14:14:19.147Z,2.47
2023-03-07T14:16:51.530Z,2.30
2023-03-07T14:19:55.541Z,1.70
2023-03-07T14:22:32.283Z,2.28
2023-03-07T14:25:21.336Z,2.28
2023-03-07T14:27:56.875Z,5.03
2023-03-07T14:30:26.097Z,2.95
2023-03-07T14:32:52.877Z,3.72
2023-03-07T14:35:43.110Z,3.40
2023-03-07T14:38:20.954Z,1.88
2023-03-07T14:41:16.720Z,3.55
2023-03-07T14:43:55.866Z,2.08
2023-03-07T14:46:35.706Z,2.47
2023-03-07T14:49:33.823Z,5.70
2023-03-07T14:52:02.585Z,2.22
2023-03-07T14:54:32.253Z,1.90
2023-03-07T14:57:00.747Z,3.30
2023-03-07T14:59:29.435Z,3.58
2023-03-07T15:01:57.783Z,4.50
2023-03-07T15:04:30.119Z,1.98
2023-03-07T15:07:02.172Z,5.00
2023-03-07T15:09:29.697Z,2.40
2023-03-07T15:12:29.204Z,2.92
2023-03-07T15:14:58.754Z,1.90
2023-03-07T15:17:32.874Z,3.65
2023-03-07T15:20:17.224Z,4.57
2023-03-07T15:22:46.841Z,2.28
2023-03-07T15:25:23.971Z,1.23
2023-03-07T15:28:04.484Z,3.13
2023-03-07T15:30:34.183Z,2.15
2023-03-07T15:33:23.245Z,1.40
2023-03-07T15:36:16.283Z,3.97
2023-03-07T15:38:48.501Z,2.95
2023-03-07T15:41:25.400Z,2.58
2023-03-07T15:44:10.610Z,2.40
2023-03-07T15:46:43.497Z,2.03
2023-03-07T15:49:23.068Z,5.25
2023-03-07T15:51:53.092Z,2.88
2023-03-07T15:54:27.202Z,2.10
2023-03-07T15:56:56.883Z,3.67
2023-03-07T15:59:38.748Z,2.65
2023-03-07T16:02:30.601Z,4.78
2023-03-07T16:04:59.944Z,2.08
2023-03-07T16:07:26.771Z,3.50
2023-03-07T16:09:53.530Z,2.67
2023-03-07T16:12:22.758Z,2.38
2023-03-07T16:14:51.150Z,4.78
2023-03-07T16:17:20.463Z,4.25
2023-03-07T16:19:47.322Z,22.58
2023-03-07T16:22:18.505Z,3.38
2023-03-07T16:24:45.415Z,3.30
2023-03-07T16:27:20.221Z,3.70
2023-03-07T16:29:47.496Z,6.78
2023-03-07T16:32:16.792Z,6.00
2023-03-07T16:34:44.517Z,2.50
2023-03-07T16:37:11.515Z,13.27
2023-03-07T16:39:38.221Z,2.55
2023-03-07T16:42:06.827Z,25.75
2023-03-07T16:44:38.183Z,10.05
2023-03-07T16:47:23.132Z,10.20
2023-03-07T16:49:51.073Z,6.47
2023-03-07T16:52:17.763Z,2.58
2023-03-07T16:54:44.583Z,2.78
2023-03-07T16:57:16.260Z,3.33
2023-03-07T16:59:47.193Z,4.82
2023-03-07T17:02:16.934Z,3.92
2023-03-07T17:04:44.728Z,3.50
2023-03-07T17:07:16.852Z,3.78
2023-03-07T17:09:43.638Z,5.50
2023-03-07T17:12:10.728Z,3.53
2023-03-07T17:14:37.535Z,5.68
2023-03-07T17:17:04.656Z,2.53
2023-03-07T17:19:32.919Z,3.42
2023-03-07T17:22:01.287Z,3.95
2023-03-07T17:24:29.388Z,4.13
2023-03-07T17:26:57.955Z,3.60
2023-03-07T17:29:40.164Z,6.15
2023-03-07T17:32:07.263Z,5.22
2023-03-07T17:34:35.021Z,2.63
2023-03-07T17:37:02.024Z,7.97
2023-03-07T17:39:30.362Z,5.38
2023-03-07T17:41:58.226Z,8.77
2023-03-07T17:44:25.301Z,6.18
2023-03-07T17:46:52.578Z,4.40
2023-03-07T17:49:20.334Z,5.82
2023-03-07T17:51:48.839Z,7.95
2023-03-07T17:54:16.296Z,7.53
2023-03-07T17:56:43.193Z,6.68
2023-03-07T17:59:10.312Z,6.10
2023-03-07T18:01:37.633Z,4.55
2023-03-07T18:04:06.507Z,7.18
2023-03-07T18:06:34.204Z,5.30
2023-03-07T18:09:01.609Z,7.20
2023-03-07T18:11:31.020Z,4.22
2023-03-07T18:13:58.071Z,3.65
2023-03-07T18:16:25.466Z,7.97
2023-03-07T18:18:59.336Z,5.38
2023-03-07T18:21:29.837Z,6.30
2023-03-07T18:23:57.140Z,4.63
2023-03-07T18:26:24.085Z,5.53
2023-03-07T18:28:53.313Z,6.97
2023-03-07T18:31:25.306Z,5.63
2023-03-07T18:33:53.241Z,5.05
2023-03-07T18:36:21.634Z,3.17
2023-03-07T18:38:48.657Z,3.53
2023-03-07T18:41:17.556Z,3.85
2023-03-07T18:43:45.043Z,5.93
2023-03-07T18:46:14.296Z,8.90
2023-03-07T18:48:41.229Z,4.35
2023-03-07T18:51:10.985Z,5.85
2023-03-07T18:53:38.476Z,2.85
2023-03-07T18:56:10.760Z,8.57
2023-03-07T18:58:37.887Z,6.55
2023-03-07T19:01:16.290Z,6.88
2023-03-07T19:03:44.213Z,5.80
2023-03-07T19:06:12.405Z,10.75
2023-03-07T19:08:39.789Z,6.47
2023-03-07T19:11:11.003Z,5.07
2023-03-07T19:13:40.628Z,3.47
2023-03-07T19:16:12.830Z,5.90
2023-03-07T19:18:40.224Z,7.53
2023-03-07T19:21:14.539Z,11.75
2023-03-07T19:23:41.524Z,19.70
2023-03-07T19:26:10.784Z,12.65
2023-03-07T19:28:37.576Z,22.38
2023-03-07T19:31:09.369Z,6.32
2023-03-07T19:33:36.887Z,4.35
2023-03-07T19:36:06.225Z,10.35
2023-03-07T19:38:36.405Z,5.63
2023-03-07T19:41:04.068Z,3.50
2023-03-07T19:43:30.889Z,6.45
2023-03-07T19:46:01.249Z,4.97
2023-03-07T19:48:28.005Z,2.88
2023-03-07T19:50:54.756Z,5.40
2023-03-07T19:53:21.564Z,5.63
2023-03-07T19:55:51.023Z,5.28
2023-03-07T19:58:17.754Z,5.53
2023-03-07T20:00:46.579Z,3.58
2023-03-07T20:03:14.658Z,4.88
2023-03-07T20:05:43.163Z,2.60
2023-03-07T20:08:10.519Z,4.07
2023-03-07T20:10:41.095Z,4.90
2023-03-07T20:15:35.572Z,3.58
2023-03-07T20:18:06.087Z,18.45
2023-03-07T20:20:36.130Z,5.63
2023-03-07T20:23:02.869Z,7.40
2023-03-07T20:25:30.137Z,5.63
2023-03-07T20:27:57.201Z,4.95
2023-03-07T20:30:23.956Z,4.80
2023-03-07T20:32:51.095Z,4.30
2023-03-07T20:35:18.096Z,4.40
2023-03-07T20:37:44.766Z,8.27
2023-03-07T20:40:12.390Z,7.05
2023-03-07T20:42:39.074Z,4.38
2023-03-07T20:45:06.658Z,5.95
2023-03-07T20:47:36.432Z,5.65
2023-03-07T20:50:03.743Z,9.57
2023-03-07T20:52:30.613Z,4.10
2023-03-07T20:54:57.344Z,5.28
2023-03-07T20:57:24.121Z,5.93
2023-03-07T20:59:51.031Z,8.85
2023-03-07T21:02:17.692Z,3.42
2023-03-07T21:04:44.369Z,7.63
2023-03-07T21:07:11.074Z,8.15
2023-03-07T21:09:37.780Z,7.63
2023-03-07T21:12:05.553Z,5.45
2023-03-07T21:14:32.416Z,5.32
2023-03-07T21:16:59.261Z,6.40
2023-03-07T21:19:26.100Z,6.53
2023-03-07T21:21:52.762Z,4.13
2023-03-07T21:24:19.475Z,8.32
2023-03-07T21:26:47.278Z,8.30
2023-03-07T21:29:14.227Z,6.60
2023-03-07T21:31:41.255Z,7.25
2023-03-07T21:34:12.307Z,8.05
2023-03-07T21:36:39.441Z,3.97
2023-03-07T21:39:08.128Z,7.30
2023-03-07T21:41:35.022Z,8.13
2023-03-07T21:44:02.253Z,4.47
2023-03-07T21:46:29.030Z,7.85
2023-03-07T21:48:59.339Z,12.70
2023-03-07T21:51:26.391Z,10.32
2023-03-07T21:53:53.070Z,6.68
2023-03-07T21:56:20.291Z,5.28
2023-03-07T21:58:49.457Z,5.00
2023-03-07T22:01:25.924Z,5.57
2023-03-07T22:03:58.085Z,5.60
2023-03-07T22:06:27.159Z,4.70
2023-03-07T22:08:54.214Z,8.45
2023-03-07T22:11:22.503Z,7.35
2023-03-07T22:13:49.351Z,4.13
2023-03-07T22:16:18.320Z,9.30
2023-03-07T22:18:45.018Z,6.57
2023-03-07T22:21:14.384Z,7.88
2023-03-07T22:23:42.235Z,7.85
2023-03-07T22:26:10.729Z,10.07
2023-03-07T22:28:38.050Z,4.18
2023-03-07T22:31:06.865Z,7.28
2023-03-07T22:33:34.134Z,8.15
2023-03-07T22:36:03.445Z,7.50
2023-03-07T22:38:30.567Z,8.18
2023-03-07T22:41:01.974Z,6.85
2023-03-07T22:43:31.578Z,3.90
2023-03-07T22:45:58.387Z,8.05
2023-03-07T22:48:25.713Z,13.60
2023-03-07T22:50:54.508Z,16.50
2023-03-07T22:53:21.553Z,9.30
2023-03-07T22:55:48.503Z,7.93
2023-03-07T22:58:15.406Z,6.38
2023-03-07T23:00:43.982Z,8.30
2023-03-07T23:03:11.214Z,7.78
2023-03-07T23:05:38.042Z,7.25
2023-03-07T23:08:05.184Z,5.53
2023-03-07T23:10:32.470Z,9.13
2023-03-07T23:12:59.598Z,7.03
2023-03-07T23:15:26.489Z,6.68
2023-03-07T23:17:53.548Z,8.75
2023-03-07T23:20:20.373Z,8.18
2023-03-07T23:22:49.874Z,8.95
2023-03-07T23:25:16.555Z,8.25
2023-03-07T23:27:43.274Z,7.85
2023-03-07T23:30:10.673Z,8.38
2023-03-07T23:32:37.505Z,7.35
2023-03-07T23:35:04.573Z,10.02
2023-03-07T23:37:32.065Z,13.23
2023-03-07T23:40:00.896Z,7.32
2023-03-07T23:42:27.724Z,4.30
2023-03-07T23:44:55.267Z,7.80
2023-03-07T23:47:22.239Z,5.75
2023-03-07T23:49:49.125Z,7.80
2023-03-07T23:52:15.947Z,9.35
2023-03-07T23:54:45.341Z,6.30
2023-03-07T23:57:12.536Z,5.88
2023-03-07T23:59:39.369Z,5.78
